createdAt,value
2023-05-09T00:00:34.461Z,2.05
2023-05-09T00:03:04.380Z,2.16
2023-05-09T00:05:32.838Z,2.07
2023-05-09T00:08:02.409Z,1.97
2023-05-09T00:10:29.138Z,1.93
2023-05-09T00:12:56.366Z,1.91
2023-05-09T00:15:23.157Z,1.79
2023-05-09T00:17:49.962Z,1.76
2023-05-09T00:20:17.111Z,1.78
2023-05-09T00:22:44.317Z,2.07
2023-05-09T00:25:11.165Z,2.06
2023-05-09T00:27:37.922Z,1.96
2023-05-09T00:30:07.845Z,1.90
2023-05-09T00:32:34.669Z,2.00
2023-05-09T00:35:01.476Z,2.21
2023-05-09T00:37:29.414Z,2.05
2023-05-09T00:39:56.654Z,2.08
2023-05-09T00:42:26.672Z,2.04
2023-05-09T00:44:55.169Z,2.13
2023-05-09T00:47:26.464Z,1.87
2023-05-09T00:49:53.907Z,2.01
2023-05-09T00:52:20.662Z,2.09
2023-05-09T00:54:47.829Z,2.16
2023-05-09T00:57:14.622Z,2.34
2023-05-09T00:59:41.354Z,2.47
2023-05-09T01:02:08.508Z,2.75
2023-05-09T01:04:35.626Z,2.88
2023-05-09T01:07:47.279Z,2.53
2023-05-09T01:10:32.166Z,2.21
2023-05-09T01:13:17.556Z,2.48
2023-05-09T01:15:59.842Z,2.45
2023-05-09T01:19:22.180Z,2.48
2023-05-09T01:21:48.902Z,2.51
2023-05-09T01:24:40.072Z,2.64
2023-05-09T01:27:25.759Z,2.21
2023-05-09T01:29:58.197Z,2.51
2023-05-09T01:32:27.002Z,2.18
2023-05-09T01:34:58.524Z,2.27
2023-05-09T01:37:35.910Z,2.13
2023-05-09T01:40:30.594Z,2.29
2023-05-09T01:43:00.365Z,2.42
2023-05-09T01:45:29.975Z,2.37
2023-05-09T01:47:59.468Z,2.33
2023-05-09T01:50:26.456Z,2.29
2023-05-09T01:52:55.157Z,2.74
2023-05-09T01:55:22.282Z,2.86
2023-05-09T01:57:49.008Z,2.64
2023-05-09T02:00:15.899Z,2.41
2023-05-09T02:02:42.879Z,2.37
2023-05-09T02:05:10.150Z,2.53
2023-05-09T02:07:37.288Z,2.55
2023-05-09T02:10:07.793Z,2.40
2023-05-09T02:12:35.158Z,2.29
2023-05-09T02:15:01.876Z,2.22
2023-05-09T02:17:29.010Z,2.27
2023-05-09T02:19:56.455Z,2.41
2023-05-09T02:22:23.196Z,2.46
2023-05-09T02:24:52.983Z,2.51
2023-05-09T02:27:23.336Z,2.62
2023-05-09T02:29:55.216Z,2.61
2023-05-09T02:32:26.824Z,2.33
2023-05-09T02:34:53.663Z,2.41
2023-05-09T02:37:21.828Z,2.38
2023-05-09T02:39:51.361Z,2.31
2023-05-09T02:42:24.014Z,2.62
2023-05-09T02:44:53.860Z,2.48
2023-05-09T02:47:20.841Z,2.35
2023-05-09T02:49:47.566Z,2.35
2023-05-09T02:52:17.102Z,2.28
2023-05-09T02:54:44.218Z,2.49
2023-05-09T02:57:11.331Z,2.71
2023-05-09T02:59:38.093Z,2.82
2023-05-09T03:02:04.858Z,2.65
2023-05-09T03:04:31.544Z,2.75
2023-05-09T03:06:58.663Z,2.58
2023-05-09T03:09:25.920Z,2.46
2023-05-09T03:11:52.644Z,2.86
2023-05-09T03:14:19.807Z,2.33
2023-05-09T03:16:49.067Z,2.42
2023-05-09T03:19:16.247Z,2.53
2023-05-09T03:21:43.390Z,2.65
2023-05-09T03:24:10.532Z,2.51
2023-05-09T03:26:37.258Z,2.70
2023-05-09T03:29:04.393Z,2.84
2023-05-09T03:31:31.120Z,2.52
2023-05-09T03:33:58.093Z,2.53
2023-05-09T03:36:24.886Z,2.73
2023-05-09T03:38:52.000Z,2.98
2023-05-09T03:41:18.817Z,3.33
2023-05-09T03:43:46.643Z,3.36
2023-05-09T03:46:13.412Z,3.31
2023-05-09T03:48:40.571Z,3.28
2023-05-09T03:51:07.334Z,3.39
2023-05-09T03:53:34.491Z,2.97
2023-05-09T03:56:01.246Z,3.09
2023-05-09T03:58:27.981Z,3.10
2023-05-09T04:00:56.030Z,3.17
2023-05-09T04:03:24.192Z,3.03
2023-05-09T04:05:51.425Z,3.06
2023-05-09T04:08:19.586Z,2.67
2023-05-09T04:10:47.488Z,2.95
2023-05-09T04:13:14.652Z,2.64
2023-05-09T04:15:41.406Z,2.41
2023-05-09T04:18:08.678Z,2.91
2023-05-09T04:20:38.201Z,2.84
2023-05-09T04:23:07.736Z,2.66
2023-05-09T04:25:34.703Z,2.65
2023-05-09T04:28:04.377Z,2.59
2023-05-09T04:30:33.929Z,2.60
2023-05-09T04:33:01.146Z,3.20
2023-05-09T04:35:27.944Z,3.31
2023-05-09T04:37:55.048Z,3.20
2023-05-09T04:40:22.220Z,3.04
2023-05-09T04:42:52.008Z,2.84
2023-05-09T04:45:22.076Z,3.24
2023-05-09T04:47:49.619Z,3.41
2023-05-09T04:50:16.371Z,3.29
2023-05-09T04:52:43.156Z,3.24
2023-05-09T04:55:10.999Z,3.17
2023-05-09T04:57:37.842Z,3.26
2023-05-09T05:00:06.090Z,2.96
2023-05-09T05:02:33.259Z,2.91
2023-05-09T05:05:13.330Z,2.92
2023-05-09T05:07:40.094Z,2.92
2023-05-09T05:10:08.426Z,2.88
2023-05-09T05:12:35.788Z,2.81
2023-05-09T05:15:02.957Z,2.75
2023-05-09T05:17:32.306Z,2.77
2023-05-09T05:19:59.457Z,2.93
2023-05-09T05:22:26.586Z,2.78
2023-05-09T05:24:53.700Z,2.69
2023-05-09T05:27:20.837Z,2.67
2023-05-09T05:29:47.939Z,2.52
2023-05-09T05:32:14.682Z,3.06
2023-05-09T05:34:41.409Z,2.80
2023-05-09T05:37:08.533Z,2.70
2023-05-09T05:39:37.983Z,2.63
2023-05-09T05:42:05.336Z,2.52
2023-05-09T05:44:32.114Z,2.49
2023-05-09T05:47:01.828Z,2.21
2023-05-09T05:49:28.978Z,2.28
2023-05-09T05:51:56.075Z,2.73
2023-05-09T05:54:22.790Z,2.95
2023-05-09T05:56:50.158Z,2.79
2023-05-09T05:59:16.880Z,3.17
2023-05-09T06:01:43.693Z,3.31
2023-05-09T06:04:10.993Z,2.78
2023-05-09T06:06:38.024Z,2.53
2023-05-09T06:09:05.056Z,2.53
2023-05-09T06:11:32.211Z,2.65
2023-05-09T06:13:58.947Z,2.45
2023-05-09T06:16:26.153Z,2.57
2023-05-09T06:18:56.652Z,2.62
2023-05-09T06:21:24.866Z,3.04
2023-05-09T06:24:07.914Z,2.85
2023-05-09T06:26:38.611Z,2.71
2023-05-09T06:29:05.713Z,2.62
2023-05-09T06:31:32.494Z,2.82
2023-05-09T06:33:59.241Z,2.77
2023-05-09T06:36:26.260Z,2.80
2023-05-09T06:38:55.697Z,2.51
2023-05-09T06:41:22.411Z,2.85
2023-05-09T06:43:49.948Z,2.88
2023-05-09T06:46:16.848Z,2.85
2023-05-09T06:48:43.634Z,2.91
2023-05-09T06:51:10.321Z,2.99
2023-05-09T06:53:37.435Z,3.15
2023-05-09T06:56:04.584Z,3.46
2023-05-09T06:58:32.352Z,3.53
2023-05-09T07:00:59.435Z,3.56
2023-05-09T07:03:26.507Z,3.27
2023-05-09T07:05:53.260Z,3.68
2023-05-09T07:08:20.006Z,3.62
2023-05-09T07:10:47.045Z,3.63
2023-05-09T07:13:14.175Z,3.73
2023-05-09T07:15:42.926Z,3.54
2023-05-09T07:18:10.568Z,3.42
2023-05-09T07:20:38.377Z,3.50
2023-05-09T07:23:05.516Z,3.77
2023-05-09T07:25:32.576Z,3.59
2023-05-09T07:28:00.277Z,3.85
2023-05-09T07:30:27.204Z,3.93
2023-05-09T07:32:56.849Z,3.91
2023-05-09T07:35:23.702Z,3.91
2023-05-09T07:37:50.761Z,3.96
2023-05-09T07:40:18.249Z,3.45
2023-05-09T07:42:46.078Z,3.83
2023-05-09T07:45:13.417Z,3.76
2023-05-09T07:47:43.425Z,3.53
2023-05-09T07:50:12.698Z,3.89
2023-05-09T07:52:39.769Z,3.79
2023-05-09T07:55:07.400Z,3.86
2023-05-09T07:57:34.157Z,3.36
2023-05-09T08:00:00.892Z,3.06
2023-05-09T08:02:28.283Z,3.24
2023-05-09T08:04:56.402Z,3.10
2023-05-09T08:07:25.865Z,3.06
2023-05-09T08:09:55.460Z,3.04
2023-05-09T08:12:24.987Z,3.48
2023-05-09T08:14:54.603Z,3.25
2023-05-09T08:17:24.288Z,3.13
2023-05-09T08:19:51.393Z,2.86
2023-05-09T08:22:20.909Z,3.29
2023-05-09T08:24:47.680Z,3.23
2023-05-09T08:27:15.471Z,3.09
2023-05-09T08:29:44.979Z,2.95
2023-05-09T08:32:12.156Z,2.91
2023-05-09T08:34:41.803Z,3.02
2023-05-09T08:37:08.537Z,2.83
2023-05-09T08:39:35.541Z,2.79
2023-05-09T08:42:02.428Z,2.82
2023-05-09T08:44:29.671Z,2.75
2023-05-09T08:46:58.724Z,2.70
2023-05-09T08:49:28.287Z,2.96
2023-05-09T08:51:55.658Z,2.71
2023-05-09T08:54:23.021Z,2.86
2023-05-09T08:56:50.505Z,2.70
2023-05-09T08:59:17.628Z,2.61
2023-05-09T09:01:47.145Z,2.62
2023-05-09T09:04:14.762Z,3.26
2023-05-09T09:06:44.170Z,3.03
2023-05-09T09:09:10.872Z,2.79
2023-05-09T09:11:37.669Z,2.82
2023-05-09T09:14:16.369Z,3.06
2023-05-09T09:16:44.508Z,2.85
2023-05-09T09:19:12.600Z,2.77
2023-05-09T09:21:41.539Z,3.55
2023-05-09T09:24:08.226Z,3.54
2023-05-09T09:26:37.543Z,2.85
2023-05-09T09:29:04.605Z,2.79
2023-05-09T09:31:34.346Z,2.76
2023-05-09T09:34:03.908Z,2.85
2023-05-09T09:36:31.289Z,2.68
2023-05-09T09:39:03.595Z,2.84
2023-05-09T09:41:37.910Z,2.80
2023-05-09T09:44:08.425Z,2.92
2023-05-09T09:46:51.585Z,2.77
2023-05-09T09:49:20.098Z,2.94
2023-05-09T09:51:56.688Z,2.93
2023-05-09T09:54:24.107Z,2.82
2023-05-09T09:56:51.605Z,2.57
2023-05-09T09:59:19.751Z,2.79
2023-05-09T10:01:57.430Z,2.53
2023-05-09T10:04:24.478Z,2.56
2023-05-09T10:06:58.103Z,2.45
2023-05-09T10:09:27.966Z,3.14
2023-05-09T10:11:57.828Z,5.99
2023-05-09T10:14:26.555Z,3.48
2023-05-09T10:16:56.589Z,2.88
2023-05-09T10:19:23.737Z,3.31
2023-05-09T10:22:05.465Z,3.11
2023-05-09T10:24:38.514Z,3.22
2023-05-09T10:27:09.500Z,3.06
2023-05-09T10:29:39.338Z,2.90
2023-05-09T10:32:12.006Z,3.09
2023-05-09T10:34:40.254Z,2.99
2023-05-09T10:37:08.262Z,3.00
2023-05-09T10:39:35.898Z,2.90
2023-05-09T10:42:02.673Z,2.76
2023-05-09T10:44:29.400Z,2.76
2023-05-09T10:46:59.394Z,2.61
2023-05-09T10:49:27.688Z,2.38
2023-05-09T10:51:55.012Z,2.27
2023-05-09T10:54:31.301Z,2.09
2023-05-09T10:57:00.998Z,2.32
2023-05-09T10:59:43.220Z,2.39
2023-05-09T11:02:13.598Z,2.31
2023-05-09T11:04:40.498Z,2.18
2023-05-09T11:07:26.662Z,1.84
2023-05-09T11:10:16.486Z,2.04
2023-05-09T11:13:00.351Z,2.12
2023-05-09T11:15:27.104Z,2.10
2023-05-09T11:18:26.161Z,1.94
2023-05-09T11:20:52.877Z,2.06
2023-05-09T11:23:20.050Z,2.17
2023-05-09T11:25:47.085Z,2.07
2023-05-09T11:28:30.612Z,2.09
2023-05-09T11:31:17.429Z,1.98
2023-05-09T11:33:45.186Z,1.91
2023-05-09T11:36:27.158Z,1.92
2023-05-09T11:39:02.866Z,1.83
2023-05-09T11:41:30.113Z,1.97
2023-05-09T11:43:56.863Z,1.85
2023-05-09T11:46:24.013Z,1.91
2023-05-09T11:48:51.163Z,1.72
2023-05-09T11:51:18.464Z,1.87
2023-05-09T11:53:45.962Z,1.96
2023-05-09T11:56:15.803Z,1.83
2023-05-09T11:58:42.624Z,1.80
2023-05-09T12:01:12.211Z,1.73
2023-05-09T12:03:46.230Z,2.25
2023-05-09T12:06:16.936Z,1.99
2023-05-09T12:08:44.276Z,1.67
2023-05-09T12:11:11.053Z,1.83
2023-05-09T12:13:51.375Z,1.83
2023-05-09T12:16:20.184Z,1.78
2023-05-09T12:18:50.582Z,1.81
2023-05-09T12:21:21.106Z,1.84
2023-05-09T12:23:50.711Z,1.78
2023-05-09T12:26:18.359Z,1.64
2023-05-09T12:28:48.048Z,1.54
2023-05-09T12:31:15.232Z,1.64
2023-05-09T12:33:42.524Z,1.53
2023-05-09T12:36:15.841Z,1.55
2023-05-09T12:38:55.289Z,1.74
2023-05-09T12:41:36.860Z,1.74
2023-05-09T12:44:06.177Z,1.95
2023-05-09T12:46:33.021Z,1.67
2023-05-09T12:49:00.259Z,1.83
2023-05-09T12:51:26.995Z,1.76
2023-05-09T12:53:54.667Z,1.94
2023-05-09T12:56:21.409Z,2.09
2023-05-09T12:58:52.353Z,1.86
2023-05-09T13:01:19.953Z,2.00
2023-05-09T13:04:08.512Z,2.16
2023-05-09T13:06:47.377Z,2.17
2023-05-09T13:09:15.078Z,2.27
2023-05-09T13:11:42.051Z,2.21
2023-05-09T13:14:09.115Z,2.39
2023-05-09T13:16:35.959Z,2.57
2023-05-09T13:19:02.722Z,2.88
2023-05-09T13:21:29.842Z,2.86
2023-05-09T13:23:56.573Z,3.11
2023-05-09T13:26:23.688Z,3.00
2023-05-09T13:28:50.785Z,3.44
2023-05-09T13:31:18.222Z,3.25
2023-05-09T13:33:45.403Z,3.51
2023-05-09T13:36:12.510Z,4.04
2023-05-09T13:38:39.748Z,3.91
2023-05-09T13:41:07.220Z,4.18
2023-05-09T13:43:36.728Z,4.41
2023-05-09T13:46:03.539Z,4.54
2023-05-09T13:48:33.085Z,4.54
2023-05-09T13:51:04.576Z,4.36
2023-05-09T13:53:32.551Z,4.82
2023-05-09T13:55:59.267Z,4.73
2023-05-09T13:58:26.141Z,5.54
2023-05-09T14:00:53.261Z,5.64
2023-05-09T14:03:20.029Z,5.67
2023-05-09T14:05:47.163Z,6.15
2023-05-09T14:08:16.894Z,6.08
2023-05-09T14:10:46.418Z,6.45
2023-05-09T14:13:13.545Z,6.83
2023-05-09T14:15:42.921Z,6.64
2023-05-09T14:18:10.333Z,6.43
2023-05-09T14:20:37.467Z,6.25
2023-05-09T14:23:04.363Z,6.15
2023-05-09T14:25:34.091Z,6.61
2023-05-09T14:28:03.675Z,6.11
2023-05-09T14:30:30.858Z,6.21
2023-05-09T14:33:00.470Z,6.09
2023-05-09T14:35:27.727Z,6.21
2023-05-09T14:37:54.488Z,6.64
2023-05-09T14:40:23.973Z,6.01
2023-05-09T14:42:52.109Z,6.30
2023-05-09T14:45:19.361Z,6.02
2023-05-09T14:47:46.552Z,5.77
2023-05-09T14:50:14.811Z,5.93
2023-05-09T14:52:42.747Z,5.44
2023-05-09T14:55:09.757Z,5.25
2023-05-09T14:57:36.812Z,4.29
2023-05-09T15:00:16.562Z,4.20
2023-05-09T15:02:49.819Z,4.58
2023-05-09T15:05:16.885Z,3.75
2023-05-09T15:07:43.637Z,3.79
2023-05-09T15:10:11.338Z,3.78
2023-05-09T15:12:38.443Z,3.86
2023-05-09T15:15:18.152Z,3.52
2023-05-09T15:17:45.049Z,3.54
2023-05-09T15:20:12.371Z,3.58
2023-05-09T15:22:39.641Z,3.12
2023-05-09T15:25:09.920Z,3.32
2023-05-09T15:27:36.634Z,3.43
2023-05-09T15:30:05.543Z,3.36
2023-05-09T15:32:32.346Z,2.72
2023-05-09T15:34:59.446Z,2.87
2023-05-09T15:37:29.055Z,2.96
2023-05-09T15:39:56.186Z,2.67
2023-05-09T15:42:24.030Z,2.51
2023-05-09T15:44:51.378Z,2.17
2023-05-09T15:47:21.009Z,2.19
2023-05-09T15:49:48.113Z,2.49
2023-05-09T15:52:14.870Z,2.88
2023-05-09T15:54:41.644Z,2.94
2023-05-09T15:57:11.676Z,3.06
2023-05-09T15:59:38.474Z,2.96
2023-05-09T16:02:06.825Z,3.25
2023-05-09T16:04:34.020Z,2.86
2023-05-09T16:07:00.854Z,2.92
2023-05-09T16:09:28.310Z,2.90
2023-05-09T16:11:55.009Z,3.08
2023-05-09T16:14:22.047Z,2.83
2023-05-09T16:16:49.144Z,2.84
2023-05-09T16:19:16.228Z,2.86
2023-05-09T16:21:46.299Z,3.18
2023-05-09T16:24:13.033Z,3.24
2023-05-09T16:26:40.182Z,3.36
2023-05-09T16:29:07.105Z,3.24
2023-05-09T16:31:35.642Z,3.44
2023-05-09T16:34:02.898Z,3.43
2023-05-09T16:36:32.571Z,3.65
2023-05-09T16:38:59.257Z,3.84
2023-05-09T16:41:26.669Z,3.84
2023-05-09T16:43:53.883Z,3.98
2023-05-09T16:46:22.940Z,3.82
2023-05-09T16:48:52.826Z,4.07
2023-05-09T16:51:19.838Z,4.39
2023-05-09T16:53:46.656Z,3.94
2023-05-09T16:56:13.566Z,4.40
2023-05-09T16:58:40.877Z,4.59
2023-05-09T17:01:08.702Z,4.36
2023-05-09T17:03:40.794Z,4.82
2023-05-09T17:06:07.922Z,5.27
2023-05-09T17:08:35.037Z,4.06
2023-05-09T17:11:01.788Z,4.22
2023-05-09T17:13:29.326Z,3.72
2023-05-09T17:15:59.960Z,2.94
2023-05-09T17:18:36.624Z,2.63
2023-05-09T17:21:04.373Z,2.65
2023-05-09T17:23:32.907Z,2.65
2023-05-09T17:26:02.485Z,2.85
2023-05-09T17:28:32.085Z,2.68
2023-05-09T17:30:59.511Z,2.31
2023-05-09T17:33:28.981Z,2.05
2023-05-09T17:35:55.848Z,2.29
2023-05-09T17:38:22.969Z,2.11
2023-05-09T17:40:50.085Z,2.11
2023-05-09T17:43:16.813Z,1.89
2023-05-09T17:45:43.567Z,1.69
2023-05-09T17:48:10.756Z,1.81
2023-05-09T17:50:37.513Z,1.63
2023-05-09T17:53:04.602Z,1.74
2023-05-09T17:55:31.286Z,1.62
2023-05-09T17:58:00.815Z,1.73
2023-05-09T18:00:30.118Z,1.55
2023-05-09T18:03:01.508Z,1.71
2023-05-09T18:05:31.583Z,2.07
2023-05-09T18:07:58.749Z,1.75
2023-05-09T18:10:25.432Z,1.43
2023-05-09T18:12:53.672Z,1.57
2023-05-09T18:15:20.840Z,1.49
2023-05-09T18:17:50.631Z,1.49
2023-05-09T18:20:17.645Z,1.42
2023-05-09T18:22:44.884Z,1.48
2023-05-09T18:25:13.370Z,1.30
2023-05-09T18:27:40.453Z,1.19
2023-05-09T18:30:10.176Z,1.01
2023-05-09T18:32:37.792Z,1.03
2023-05-09T18:35:08.493Z,1.00
2023-05-09T18:37:35.827Z,1.09
2023-05-09T18:40:02.555Z,1.07
2023-05-09T18:42:33.211Z,1.20
2023-05-09T18:45:00.348Z,0.97
2023-05-09T18:47:27.556Z,1.14
2023-05-09T18:49:59.197Z,0.97
2023-05-09T18:52:27.847Z,1.05
2023-05-09T18:54:54.880Z,0.90
2023-05-09T18:57:22.077Z,0.85
2023-05-09T18:59:51.984Z,0.97
2023-05-09T19:02:19.356Z,0.98
2023-05-09T19:04:46.484Z,0.93
2023-05-09T19:07:13.244Z,0.80
2023-05-09T19:09:40.395Z,0.91
2023-05-09T19:12:07.092Z,1.10
2023-05-09T19:14:33.765Z,1.36
2023-05-09T19:17:00.575Z,0.98
2023-05-09T19:19:28.456Z,0.93
2023-05-09T19:21:58.041Z,0.81
2023-05-09T19:24:25.197Z,0.87
2023-05-09T19:26:55.488Z,0.75
2023-05-09T19:29:22.710Z,0.88
2023-05-09T19:31:49.736Z,1.12
2023-05-09T19:34:17.295Z,1.02
2023-05-09T19:36:44.364Z,0.78
2023-05-09T19:39:13.152Z,0.57
2023-05-09T19:41:40.395Z,0.67
2023-05-09T19:44:07.120Z,0.71
2023-05-09T19:46:34.192Z,0.76
2023-05-09T19:49:02.579Z,0.92
2023-05-09T19:51:29.853Z,0.87
2023-05-09T19:53:56.911Z,0.77
2023-05-09T19:56:24.117Z,0.95
2023-05-09T19:58:58.688Z,0.99
2023-05-09T20:01:26.077Z,0.74
2023-05-09T20:03:52.986Z,0.79
2023-05-09T20:06:20.548Z,0.82
2023-05-09T20:08:47.521Z,0.90
2023-05-09T20:11:23.852Z,0.94
2023-05-09T20:13:50.870Z,1.07
2023-05-09T20:16:18.721Z,1.15
2023-05-09T20:18:51.977Z,1.19
2023-05-09T20:21:18.907Z,1.57
2023-05-09T20:23:45.663Z,1.43
2023-05-09T20:26:15.898Z,1.36
2023-05-09T20:28:43.141Z,1.55
2023-05-09T20:31:12.880Z,1.60
2023-05-09T20:33:41.350Z,1.52
2023-05-09T20:36:09.252Z,1.64
2023-05-09T20:38:36.416Z,1.40
2023-05-09T20:41:03.900Z,1.40
2023-05-09T20:43:30.930Z,1.33
2023-05-09T20:45:58.061Z,1.36
2023-05-09T20:48:25.137Z,1.31
2023-05-09T20:50:51.895Z,1.37
2023-05-09T20:53:22.411Z,1.31
2023-05-09T20:55:53.663Z,1.25
2023-05-09T20:58:22.098Z,1.36
2023-05-09T21:00:49.214Z,1.32
2023-05-09T21:03:18.169Z,1.42
2023-05-09T21:05:47.675Z,1.49
2023-05-09T21:08:17.631Z,1.47
2023-05-09T21:10:47.448Z,1.47
2023-05-09T21:13:14.533Z,1.34
2023-05-09T21:15:42.072Z,1.32
2023-05-09T21:18:09.240Z,1.11
2023-05-09T21:20:36.765Z,1.17
2023-05-09T21:23:07.759Z,1.11
2023-05-09T21:25:35.882Z,1.15
2023-05-09T21:28:06.296Z,1.10
2023-05-09T21:30:35.651Z,1.07
2023-05-09T21:33:03.484Z,1.04
2023-05-09T21:35:31.276Z,0.81
2023-05-09T21:37:58.790Z,0.96
2023-05-09T21:40:25.480Z,1.07
2023-05-09T21:42:53.873Z,1.05
2023-05-09T21:45:20.635Z,0.75
2023-05-09T21:47:48.452Z,0.99
2023-05-09T21:50:16.308Z,0.95
2023-05-09T21:52:43.636Z,1.01
2023-05-09T21:55:13.024Z,0.95
2023-05-09T21:57:41.247Z,1.03
2023-05-09T22:00:09.424Z,0.81
2023-05-09T22:02:36.205Z,0.93
2023-05-09T22:05:07.961Z,0.76
2023-05-09T22:07:35.978Z,0.76
2023-05-09T22:10:04.562Z,0.68
2023-05-09T22:12:31.714Z,0.77
2023-05-09T22:14:59.875Z,0.81
2023-05-09T22:17:26.691Z,0.86
2023-05-09T22:19:54.278Z,0.84
2023-05-09T22:22:22.776Z,0.79
2023-05-09T22:24:52.661Z,0.77
2023-05-09T22:27:19.445Z,0.82
2023-05-09T22:29:46.611Z,0.85
2023-05-09T22:32:16.329Z,0.75
2023-05-09T22:34:46.603Z,0.64
2023-05-09T22:37:13.304Z,0.66
2023-05-09T22:39:40.323Z,0.70
2023-05-09T22:42:07.808Z,0.69
2023-05-09T22:44:35.425Z,0.74
2023-05-09T22:47:02.532Z,0.71
2023-05-09T22:49:29.775Z,0.68
2023-05-09T22:51:56.912Z,0.71
2023-05-09T22:54:26.084Z,0.78
2023-05-09T22:56:54.885Z,0.75
2023-05-09T22:59:25.461Z,0.75
2023-05-09T23:01:52.846Z,0.73
2023-05-09T23:04:22.649Z,0.75
2023-05-09T23:06:52.367Z,0.63
2023-05-09T23:09:24.242Z,0.80
2023-05-09T23:11:54.630Z,0.73
2023-05-09T23:14:25.153Z,0.85
2023-05-09T23:16:52.797Z,0.82
2023-05-09T23:19:22.859Z,0.81
2023-05-09T23:21:50.355Z,0.79
2023-05-09T23:24:17.028Z,0.81
2023-05-09T23:26:45.393Z,0.89
2023-05-09T23:29:12.824Z,0.89
2023-05-09T23:31:41.082Z,1.05
2023-05-09T23:34:09.516Z,0.87
2023-05-09T23:36:37.054Z,0.90
2023-05-09T23:39:07.028Z,0.90
2023-05-09T23:41:34.283Z,1.00
2023-05-09T23:44:01.003Z,0.77
2023-05-09T23:46:30.808Z,0.80
2023-05-09T23:48:58.770Z,0.66
2023-05-09T23:51:26.405Z,0.70
2023-05-09T23:53:53.178Z,0.78
2023-05-09T23:56:19.920Z,0.76
2023-05-09T23:58:48.324Z,0.70
